Time;durP1;ratioP1;P1;durP2;ratioP2;P2;SDS_P1;SDS_P2;PMS_P1;PMS_P2;Temp;Humidity;BMP_temperature;BMP_pressure;BME280_temperature;BME280_humidity;BME280_pressure;Samples;Min_cycle;Max_cycle;Signal;HPM_P1;HPM_P2
2022/05/01 00:02:17;;;;;;;9.73;8.30;;;;;;;;;;5054276;28;20417;-52
2022/05/01 00:04:43;;;;;;;9.40;7.87;;;;;;;;;;5054826;28;20440;-53
2022/05/01 00:07:12;;;;;;;12.90;7.93;;;;;;;;;;5054743;28;20424;-50
2022/05/01 00:09:39;;;;;;;11.00;7.90;;;;;;;;;;5054760;28;20480;-52
2022/05/01 00:12:07;;;;;;;11.40;6.93;;;;;;;;;;5054019;28;20429;-51
2022/05/01 00:14:33;;;;;;;8.67;7.60;;;;;;;;;;5054675;28;20401;-51
2022/05/01 00:16:59;;;;;;;12.90;8.90;;;;;;;;;;5054609;28;20408;-50
2022/05/01 00:19:25;;;;;;;13.77;8.13;;;;;;;;;;5054835;28;20872;-50
2022/05/01 00:21:51;;;;;;;10.67;8.13;;;;;;;;;;5053886;28;20836;-52
2022/05/01 00:24:17;;;;;;;10.57;8.50;;;;;;;;;;5054526;28;20408;-52
2022/05/01 00:26:43;;;;;;;9.60;7.97;;;;;;;;;;5054594;28;20401;-54
2022/05/01 00:29:09;;;;;;;12.47;8.67;;;;;;;;;;5054241;28;21009;-53
2022/05/01 00:31:35;;;;;;;10.83;8.73;;;;;;;;;;5053227;28;20435;-52
2022/05/01 00:36:45;;;;;;;13.33;8.80;;;;;;;;;;5054263;28;20436;-52
2022/05/01 00:39:11;;;;;;;14.97;8.47;;;;;;;;;;5054169;28;20409;-53
2022/05/01 00:41:39;;;;;;;11.93;8.47;;;;;;;;;;5053464;28;20401;-51
2022/05/01 00:44:09;;;;;;;16.70;8.20;;;;;;;;;;5054079;28;20458;-51
2022/05/01 00:46:36;;;;;;;10.40;8.23;;;;;;;;;;5054103;28;20938;-50
2022/05/01 00:49:04;;;;;;;10.03;8.90;;;;;;;;;;5053907;28;20539;-51
2022/05/01 00:51:30;;;;;;;11.80;8.17;;;;;;;;;;5053305;28;20469;-51
2022/05/01 00:53:57;;;;;;;11.40;8.10;;;;;;;;;;5054054;28;20396;-50
2022/05/01 00:56:24;;;;;;;8.80;7.40;;;;;;;;;;5053890;28;20407;-51
2022/05/01 00:58:51;;;;;;;10.77;7.90;;;;;;;;;;5053667;28;20471;-50
2022/05/01 01:01:18;;;;;;;12.00;7.80;;;;;;;;;;5052606;28;20916;-50
2022/05/01 01:03:44;;;;;;;10.13;7.87;;;;;;;;;;5053276;28;20450;-52
2022/05/01 01:06:10;;;;;;;9.87;7.63;;;;;;;;;;5053330;28;20535;-51
2022/05/01 01:08:36;;;;;;;10.03;7.53;;;;;;;;;;5053441;28;20543;-53
2022/05/01 01:11:02;;;;;;;12.73;8.17;;;;;;;;;;5053054;28;20397;-51
2022/05/01 01:13:29;;;;;;;10.17;7.90;;;;;;;;;;5053366;28;20421;-54
2022/05/01 01:15:56;;;;;;;9.20;7.70;;;;;;;;;;5053529;28;20412;-51
2022/05/01 01:18:22;;;;;;;10.33;7.63;;;;;;;;;;5053420;28;20831;-51
2022/05/01 01:20:48;;;;;;;8.17;7.33;;;;;;;;;;5052833;28;20409;-50
2022/05/01 01:23:14;;;;;;;9.30;7.60;;;;;;;;;;5053351;28;20973;-50
2022/05/01 01:25:41;;;;;;;9.43;7.53;;;;;;;;;;5053355;28;20402;-50
2022/05/01 01:28:08;;;;;;;9.10;7.90;;;;;;;;;;5053124;28;20544;-51
2022/05/01 01:33:19;;;;;;;11.53;8.00;;;;;;;;;;5053178;28;20424;-50
2022/05/01 01:35:47;;;;;;;8.10;7.00;;;;;;;;;;5053053;28;20397;-50
2022/05/01 01:38:13;;;;;;;15.43;7.73;;;;;;;;;;5053064;28;20946;-51
2022/05/01 01:40:43;;;;;;;6.80;6.10;;;;;;;;;;5052903;28;20397;-58
2022/05/01 01:43:10;;;;;;;11.63;7.43;;;;;;;;;;5052046;28;20926;-51
2022/05/01 01:45:36;;;;;;;8.90;8.00;;;;;;;;;;5052366;28;20440;-51
2022/05/01 01:48:19;;;;;;;10.23;7.40;;;;;;;;;;5052888;28;20485;-50
2022/05/01 01:50:54;;;;;;;12.40;8.53;;;;;;;;;;5052557;28;20395;-54
2022/05/01 01:53:20;;;;;;;10.30;8.13;;;;;;;;;;5052984;28;20454;-50
2022/05/01 01:55:46;;;;;;;10.83;8.63;;;;;;;;;;5053000;28;20464;-51
2022/05/01 01:58:12;;;;;;;13.10;9.20;;;;;;;;;;5052683;28;20895;-51
2022/05/01 02:00:38;;;;;;;9.80;7.60;;;;;;;;;;5052784;28;20944;-53
2022/05/01 02:03:04;;;;;;;9.00;7.43;;;;;;;;;;5052042;28;20446;-54
2022/05/01 02:05:31;;;;;;;10.43;8.10;;;;;;;;;;5052553;28;20406;-51
2022/05/01 02:07:57;;;;;;;12.00;9.20;;;;;;;;;;5052440;28;20538;-50
2022/05/01 02:10:23;;;;;;;9.13;7.70;;;;;;;;;;5052449;28;20403;-51
2022/05/01 02:12:50;;;;;;;11.67;8.17;;;;;;;;;;5051712;28;20449;-51
2022/05/01 02:15:16;;;;;;;9.37;8.10;;;;;;;;;;5052392;28;20435;-51
2022/05/01 02:17:42;;;;;;;11.27;8.60;;;;;;;;;;5052473;28;20913;-50
2022/05/01 02:20:09;;;;;;;12.67;9.07;;;;;;;;;;5052233;28;20410;-50
2022/05/01 02:22:35;;;;;;;14.80;11.20;;;;;;;;;;5051761;28;21054;-50
2022/05/01 02:25:02;;;;;;;11.60;9.20;;;;;;;;;;5052156;28;20409;-53
2022/05/01 02:27:28;;;;;;;22.93;9.97;;;;;;;;;;5052096;28;20453;-51
2022/05/01 02:29:54;;;;;;;9.80;7.90;;;;;;;;;;5052090;28;20471;-51
2022/05/01 02:32:20;;;;;;;10.50;8.10;;;;;;;;;;5051478;28;20421;-51
2022/05/01 02:34:46;;;;;;;12.90;9.80;;;;;;;;;;5051799;28;20390;-52
2022/05/01 02:37:12;;;;;;;13.17;8.83;;;;;;;;;;5052243;28;20484;-53
2022/05/01 02:39:38;;;;;;;9.57;8.30;;;;;;;;;;5051995;28;20460;-50
2022/05/01 02:42:04;;;;;;;11.00;8.57;;;;;;;;;;5051286;28;20430;-50
2022/05/01 02:44:30;;;;;;;9.23;7.80;;;;;;;;;;5052054;28;20403;-51
2022/05/01 02:46:57;;;;;;;14.00;9.20;;;;;;;;;;5051907;28;20882;-50
2022/05/01 02:49:23;;;;;;;10.40;8.00;;;;;;;;;;5051712;28;20977;-50
2022/05/01 02:51:52;;;;;;;11.73;8.40;;;;;;;;;;5051070;28;20449;-50
2022/05/01 02:54:18;;;;;;;13.17;8.70;;;;;;;;;;5051834;28;20485;-51
2022/05/01 02:56:44;;;;;;;11.70;8.00;;;;;;;;;;5051480;28;20470;-51
2022/05/01 02:59:10;;;;;;;10.00;8.53;;;;;;;;;;5051688;28;20412;-51
2022/05/01 03:01:37;;;;;;;9.93;7.87;;;;;;;;;;5051096;28;20402;-52
2022/05/01 03:04:03;;;;;;;12.80;9.70;;;;;;;;;;5051735;28;20909;-51
2022/05/01 03:06:29;;;;;;;10.03;8.17;;;;;;;;;;5051723;28;20403;-51
2022/05/01 03:08:55;;;;;;;13.73;9.70;;;;;;;;;;5051638;28;20460;-51
2022/05/01 03:11:21;;;;;;;13.25;9.45;;;;;;;;;;5051045;28;20489;-51
2022/05/01 03:13:48;;;;;;;9.03;8.07;;;;;;;;;;5051631;28;20225;-51
2022/05/01 03:16:14;;;;;;;10.67;9.27;;;;;;;;;;5051585;28;20398;-51
2022/05/01 03:24:09;;;;;;;11.88;9.02;;;;;;;;;;5051842;28;20236;-51
2022/05/01 03:26:35;;;;;;;11.77;9.27;;;;;;;;;;5051564;28;20254;-51
2022/05/01 03:29:01;;;;;;;16.30;9.30;;;;;;;;;;5051334;28;20453;-50
2022/05/01 03:31:28;;;;;;;10.80;8.73;;;;;;;;;;5050965;28;20857;-50
2022/05/01 03:33:57;;;;;;;12.63;9.95;;;;;;;;;;5051435;28;20429;-51
2022/05/01 03:36:23;;;;;;;11.93;8.80;;;;;;;;;;5051540;28;20177;-52
2022/05/01 03:38:49;;;;;;;12.53;9.03;;;;;;;;;;5051936;28;20477;-53
2022/05/01 03:41:16;;;;;;;12.43;9.20;;;;;;;;;;5050723;28;20402;-53
2022/05/01 03:43:42;;;;;;;12.00;9.55;;;;;;;;;;5051560;28;20424;-52
2022/05/01 03:46:08;;;;;;;11.65;8.85;;;;;;;;;;5051413;28;20252;-52
2022/05/01 03:48:34;;;;;;;10.75;8.57;;;;;;;;;;5051203;28;20253;-53
2022/05/01 03:51:01;;;;;;;11.95;8.63;;;;;;;;;;5050525;28;20159;-53
2022/05/01 03:53:27;;;;;;;16.00;9.50;;;;;;;;;;5051236;28;20190;-52
2022/05/01 03:55:53;;;;;;;15.32;8.88;;;;;;;;;;5051509;28;20537;-53
2022/05/01 03:58:20;;;;;;;14.27;9.23;;;;;;;;;;5051184;28;20221;-53
2022/05/01 04:00:47;;;;;;;11.27;8.65;;;;;;;;;;5050793;28;20190;-53
2022/05/01 04:03:13;;;;;;;12.18;9.32;;;;;;;;;;5051117;28;20187;-53
2022/05/01 04:05:40;;;;;;;10.48;8.48;;;;;;;;;;5051224;28;20175;-53
2022/05/01 04:08:08;;;;;;;12.63;10.18;;;;;;;;;;5053109;28;20226;-52
2022/05/01 04:10:34;;;;;;;10.95;9.02;;;;;;;;;;5054616;28;20232;-53
2022/05/01 04:13:00;;;;;;;11.70;10.47;;;;;;;;;;5054122;28;20662;-52
2022/05/01 04:15:26;;;;;;;14.30;11.10;;;;;;;;;;5054692;28;20412;-53
2022/05/01 04:17:52;;;;;;;14.90;9.73;;;;;;;;;;5054673;28;20505;-53
2022/05/01 04:20:18;;;;;;;14.75;10.90;;;;;;;;;;5054485;28;20402;-53
2022/05/01 04:22:48;;;;;;;13.23;9.82;;;;;;;;;;5053841;28;20191;-52
2022/05/01 04:25:16;;;;;;;16.90;11.40;;;;;;;;;;5054474;28;20201;-52
2022/05/01 04:27:43;;;;;;;14.23;9.60;;;;;;;;;;5054425;28;20186;-52
2022/05/01 04:30:09;;;;;;;14.18;10.68;;;;;;;;;;5054317;28;20163;-52
2022/05/01 04:32:46;;;;;;;16.52;10.25;;;;;;;;;;5052669;28;20191;-52
2022/05/01 04:35:12;;;;;;;13.88;10.13;;;;;;;;;;5054390;28;20250;-52
2022/05/01 04:37:38;;;;;;;13.25;10.55;;;;;;;;;;5054180;28;20194;-52
2022/05/01 04:40:04;;;;;;;14.70;10.50;;;;;;;;;;5054275;28;20255;-52
2022/05/01 04:42:30;;;;;;;16.05;10.82;;;;;;;;;;5053706;28;20433;-53
2022/05/01 04:44:57;;;;;;;15.90;10.32;;;;;;;;;;5054284;28;20519;-53
2022/05/01 04:47:23;;;;;;;14.45;9.95;;;;;;;;;;5053965;28;20217;-52
2022/05/01 04:49:50;;;;;;;12.73;10.00;;;;;;;;;;5054007;28;20171;-52
2022/05/01 04:52:16;;;;;;;14.55;9.88;;;;;;;;;;5053006;28;20437;-53
2022/05/01 04:54:42;;;;;;;11.47;10.20;;;;;;;;;;5054151;28;20544;-52
2022/05/01 04:57:09;;;;;;;12.53;9.77;;;;;;;;;;5053870;28;20393;-53
2022/05/01 04:59:35;;;;;;;14.52;11.00;;;;;;;;;;5053815;28;20428;-52
2022/05/01 05:02:01;;;;;;;13.60;10.20;;;;;;;;;;5053109;28;20277;-52
2022/05/01 05:04:27;;;;;;;14.75;10.07;;;;;;;;;;5053737;28;20681;-52
2022/05/01 05:06:54;;;;;;;13.70;11.00;;;;;;;;;;5053647;28;20175;-52
2022/05/01 05:12:09;;;;;;;19.40;11.07;;;;;;;;;;5053230;28;20216;-52
2022/05/01 05:14:35;;;;;;;11.35;8.50;;;;;;;;;;5053596;28;20535;-52
2022/05/01 05:17:01;;;;;;;13.20;10.02;;;;;;;;;;5053595;28;20178;-53
2022/05/01 05:19:27;;;;;;;14.35;9.38;;;;;;;;;;5053186;28;20182;-52
2022/05/01 05:21:53;;;;;;;13.52;10.45;;;;;;;;;;5052844;28;20332;-52
2022/05/01 05:24:19;;;;;;;19.30;8.95;;;;;;;;;;5053541;28;20171;-52
2022/05/01 05:26:45;;;;;;;15.38;10.60;;;;;;;;;;5053048;28;20170;-53
2022/05/01 05:29:11;;;;;;;13.53;10.70;;;;;;;;;;5052492;28;20697;-53
2022/05/01 05:31:37;;;;;;;12.70;10.27;;;;;;;;;;5051127;28;20429;-53
2022/05/01 05:34:03;;;;;;;14.05;11.70;;;;;;;;;;5053868;28;20436;-52
2022/05/01 05:36:29;;;;;;;13.93;10.63;;;;;;;;;;5052852;28;20756;-52
2022/05/01 05:38:55;;;;;;;13.53;10.30;;;;;;;;;;5052980;28;20394;-52
2022/05/01 05:41:22;;;;;;;13.87;10.53;;;;;;;;;;5052474;28;20389;-53
2022/05/01 05:43:47;;;;;;;12.73;9.07;;;;;;;;;;5052898;28;20409;-52
2022/05/01 05:46:13;;;;;;;13.90;10.30;;;;;;;;;;5053018;28;20399;-52
2022/05/01 05:48:39;;;;;;;16.30;11.33;;;;;;;;;;5052808;28;20462;-52
2022/05/01 05:51:05;;;;;;;15.60;11.63;;;;;;;;;;5052049;28;20405;-52
2022/05/01 05:53:31;;;;;;;14.13;11.17;;;;;;;;;;5052753;28;21012;-53
2022/05/01 05:55:58;;;;;;;14.07;10.60;;;;;;;;;;5052782;28;20394;-53
2022/05/01 05:58:24;;;;;;;20.27;10.17;;;;;;;;;;5052662;28;20406;-52
2022/05/01 06:00:50;;;;;;;15.90;11.10;;;;;;;;;;5052083;28;20970;-53
2022/05/01 06:03:16;;;;;;;13.63;10.87;;;;;;;;;;5052540;28;20427;-53
2022/05/01 06:05:42;;;;;;;18.50;12.33;;;;;;;;;;5052672;28;20413;-53
2022/05/01 06:08:09;;;;;;;14.23;11.20;;;;;;;;;;5052500;28;20448;-52
2022/05/01 06:10:35;;;;;;;15.13;11.57;;;;;;;;;;5052407;28;20413;-53
2022/05/01 06:13:01;;;;;;;13.70;11.50;;;;;;;;;;5051770;28;20425;-53
2022/05/01 06:15:27;;;;;;;13.20;11.43;;;;;;;;;;5052553;28;20417;-53
2022/05/01 06:17:53;;;;;;;16.57;10.57;;;;;;;;;;5052392;28;20906;-53
2022/05/01 06:20:20;;;;;;;13.27;10.47;;;;;;;;;;5070602;28;20528;-53
2022/05/01 06:22:49;;;;;;;13.00;10.50;;;;;;;;;;5071563;28;20432;-53
2022/05/01 06:25:15;;;;;;;15.63;10.97;;;;;;;;;;5072283;28;20399;-53
2022/05/01 06:27:41;;;;;;;14.87;9.97;;;;;;;;;;5072087;28;20459;-53
2022/05/01 06:30:07;;;;;;;12.23;10.53;;;;;;;;;;5071629;28;20453;-53
2022/05/01 06:32:34;;;;;;;13.63;9.90;;;;;;;;;;5071480;28;20424;-53
2022/05/01 06:35:00;;;;;;;14.53;11.00;;;;;;;;;;5072123;28;20392;-53
2022/05/01 06:37:26;;;;;;;21.53;13.57;;;;;;;;;;5072163;28;20780;-53
2022/05/01 06:39:52;;;;;;;17.20;10.57;;;;;;;;;;5071999;28;20400;-52
2022/05/01 06:42:18;;;;;;;14.53;10.87;;;;;;;;;;5071304;28;20431;-52
2022/05/01 06:44:44;;;;;;;13.30;10.47;;;;;;;;;;5072080;28;20479;-53
2022/05/01 06:47:12;;;;;;;14.97;11.40;;;;;;;;;;5072000;28;20431;-52
2022/05/01 06:49:38;;;;;;;17.43;11.80;;;;;;;;;;5071738;28;20871;-53
2022/05/01 06:52:04;;;;;;;13.27;9.73;;;;;;;;;;5071203;28;20440;-52
2022/05/01 06:54:30;;;;;;;14.87;10.43;;;;;;;;;;5071902;28;20397;-53
2022/05/01 06:56:56;;;;;;;14.63;11.57;;;;;;;;;;5071912;28;20458;-52
2022/05/01 06:59:22;;;;;;;12.53;10.47;;;;;;;;;;5071967;28;20904;-52
2022/05/01 07:01:48;;;;;;;15.40;12.20;;;;;;;;;;5071123;28;20885;-53
2022/05/01 07:04:14;;;;;;;13.63;11.50;;;;;;;;;;5071823;28;20921;-53
2022/05/01 07:06:40;;;;;;;16.80;11.37;;;;;;;;;;5071786;28;20411;-53
2022/05/01 07:09:07;;;;;;;12.63;10.50;;;;;;;;;;5071681;28;20445;-53
2022/05/01 07:11:33;;;;;;;15.80;11.37;;;;;;;;;;5070912;28;20400;-53
2022/05/01 07:13:58;;;;;;;16.27;11.57;;;;;;;;;;5071792;28;20992;-53
2022/05/01 07:16:24;;;;;;;13.23;10.07;;;;;;;;;;5071672;28;20449;-52
2022/05/01 07:18:50;;;;;;;12.93;11.07;;;;;;;;;;5071610;28;20408;-53
2022/05/01 07:21:17;;;;;;;14.77;11.80;;;;;;;;;;5071060;28;20400;-53
2022/05/01 07:23:43;;;;;;;16.30;10.17;;;;;;;;;;5071524;28;20433;-53
2022/05/01 07:26:09;;;;;;;12.17;10.07;;;;;;;;;;5071643;28;20411;-52
2022/05/01 07:28:35;;;;;;;13.67;10.50;;;;;;;;;;5071488;28;20451;-53
2022/05/01 07:31:03;;;;;;;10.63;8.90;;;;;;;;;;5070949;28;20402;-52
2022/05/01 07:33:29;;;;;;;12.30;8.80;;;;;;;;;;5071137;28;20804;-53
2022/05/01 07:35:57;;;;;;;16.20;9.23;;;;;;;;;;5071530;28;20408;-53
2022/05/01 07:38:23;;;;;;;11.83;7.40;;;;;;;;;;5071355;28;20458;-53
2022/05/01 07:40:49;;;;;;;12.40;9.20;;;;;;;;;;5070832;28;20408;-53
2022/05/01 07:43:16;;;;;;;14.23;9.13;;;;;;;;;;5073952;28;20781;-53
2022/05/01 07:45:43;;;;;;;15.97;9.53;;;;;;;;;;5075279;28;20401;-53
2022/05/01 07:48:09;;;;;;;9.43;8.27;;;;;;;;;;5075123;28;20532;-54
2022/05/01 07:50:35;;;;;;;9.80;8.53;;;;;;;;;;5075021;28;20504;-53
2022/05/01 07:53:01;;;;;;;12.00;8.10;;;;;;;;;;5074304;28;20495;-53
2022/05/01 07:55:27;;;;;;;9.70;8.27;;;;;;;;;;5075052;28;20439;-53
2022/05/01 07:57:53;;;;;;;11.00;8.67;;;;;;;;;;5075075;28;20490;-53
2022/05/01 08:00:19;;;;;;;10.93;8.90;;;;;;;;;;5075062;28;20956;-53
2022/05/01 08:05:30;;;;;;;12.20;8.70;;;;;;;;;;5074883;28;20942;-53
2022/05/01 08:07:57;;;;;;;9.87;8.60;;;;;;;;;;5074843;28;20460;-54
2022/05/01 08:10:23;;;;;;;9.60;8.10;;;;;;;;;;5074774;28;20380;-53
2022/05/01 08:12:49;;;;;;;10.93;9.07;;;;;;;;;;5074061;28;20396;-53
2022/05/01 08:15:19;;;;;;;9.33;8.30;;;;;;;;;;5074780;28;20379;-54
2022/05/01 08:17:46;;;;;;;11.27;8.37;;;;;;;;;;5074728;28;20408;-53
2022/05/01 08:23:03;;;;;;;9.97;8.93;;;;;;;;;;5073956;28;20783;-54
2022/05/01 08:25:29;;;;;;;9.00;8.10;;;;;;;;;;5074618;28;20742;-53
2022/05/01 08:27:55;;;;;;;9.20;8.30;;;;;;;;;;5074513;28;20454;-54
2022/05/01 08:30:21;;;;;;;9.93;8.93;;;;;;;;;;5072461;28;20822;-54
2022/05/01 08:32:47;;;;;;;9.47;8.50;;;;;;;;;;5073618;28;20418;-54
2022/05/01 08:35:14;;;;;;;10.43;9.30;;;;;;;;;;5074379;28;20490;-53
2022/05/01 08:37:40;;;;;;;9.43;8.47;;;;;;;;;;5074278;28;20411;-54
2022/05/01 08:40:07;;;;;;;9.23;8.30;;;;;;;;;;5074281;28;20461;-54
2022/05/01 08:42:35;;;;;;;11.80;9.80;;;;;;;;;;5073669;28;20436;-54
2022/05/01 08:45:02;;;;;;;9.50;8.53;;;;;;;;;;5074282;28;20405;-54
2022/05/01 08:47:35;;;;;;;10.70;9.07;;;;;;;;;;5069866;28;20428;-54
2022/05/01 08:50:01;;;;;;;12.03;9.27;;;;;;;;;;5063246;28;20372;-54
2022/05/01 08:52:29;;;;;;;10.37;8.60;;;;;;;;;;5052959;28;20536;-53
2022/05/01 08:54:56;;;;;;;12.87;9.00;;;;;;;;;;5053674;28;20393;-53
2022/05/01 08:57:23;;;;;;;11.10;9.80;;;;;;;;;;5053978;28;20469;-54
2022/05/01 08:59:51;;;;;;;10.73;9.60;;;;;;;;;;5053785;28;20373;-53
2022/05/01 09:02:17;;;;;;;11.73;8.80;;;;;;;;;;5053172;28;20394;-54
2022/05/01 09:04:43;;;;;;;9.53;8.60;;;;;;;;;;5053903;28;20487;-54
2022/05/01 09:07:10;;;;;;;12.17;9.47;;;;;;;;;;5053792;28;20407;-54
2022/05/01 09:09:36;;;;;;;10.40;8.50;;;;;;;;;;5053423;28;20458;-54
2022/05/01 09:14:48;;;;;;;9.90;8.90;;;;;;;;;;5053132;28;20403;-54
2022/05/01 09:17:17;;;;;;;12.33;8.77;;;;;;;;;;5053605;28;20396;-53
2022/05/01 09:19:44;;;;;;;12.00;10.60;;;;;;;;;;5053483;28;20378;-54
2022/05/01 09:22:11;;;;;;;11.90;9.13;;;;;;;;;;5052736;28;20447;-54
2022/05/01 09:24:37;;;;;;;9.73;8.30;;;;;;;;;;5053264;28;20452;-54
2022/05/01 09:27:03;;;;;;;10.10;8.33;;;;;;;;;;5053461;28;20378;-54
2022/05/01 09:29:34;;;;;;;10.47;8.70;;;;;;;;;;5053262;28;20426;-53
2022/05/01 09:32:01;;;;;;;12.60;9.43;;;;;;;;;;5052658;28;20394;-54
2022/05/01 09:34:29;;;;;;;9.23;8.33;;;;;;;;;;5053249;28;20401;-53
2022/05/01 09:36:55;;;;;;;10.93;8.90;;;;;;;;;;5053217;28;20907;-53
2022/05/01 09:39:25;;;;;;;9.03;8.23;;;;;;;;;;5053520;28;20808;-51
2022/05/01 09:41:52;;;;;;;13.13;8.23;;;;;;;;;;5052334;28;20924;-51
2022/05/01 09:44:19;;;;;;;8.60;7.80;;;;;;;;;;5053240;28;20410;-51
2022/05/01 09:46:46;;;;;;;10.50;8.00;;;;;;;;;;5052930;28;20457;-51
2022/05/01 09:49:13;;;;;;;10.60;7.40;;;;;;;;;;5052924;28;20438;-52
2022/05/01 09:51:42;;;;;;;9.13;7.70;;;;;;;;;;5052170;28;20440;-51
2022/05/01 09:54:08;;;;;;;8.27;7.43;;;;;;;;;;5052965;28;20384;-52
2022/05/01 09:56:44;;;;;;;9.70;7.20;;;;;;;;;;5068495;28;20410;-52
2022/05/01 09:59:10;;;;;;;8.10;7.07;;;;;;;;;;5052867;28;20412;-52
2022/05/01 10:01:38;;;;;;;8.80;7.50;;;;;;;;;;5051998;28;20926;-51
2022/05/01 10:04:04;;;;;;;12.10;7.50;;;;;;;;;;5052623;28;20461;-51
2022/05/01 10:06:31;;;;;;;8.00;7.20;;;;;;;;;;5051892;28;20955;-51
2022/05/01 10:08:57;;;;;;;10.10;8.00;;;;;;;;;;5052625;28;21041;-53
2022/05/01 10:11:29;;;;;;;9.23;8.23;;;;;;;;;;5052082;28;20447;-52
2022/05/01 10:13:56;;;;;;;9.23;7.57;;;;;;;;;;5052416;28;20422;-51
2022/05/01 10:16:22;;;;;;;11.83;7.87;;;;;;;;;;5052512;28;20382;-53
2022/05/01 10:18:48;;;;;;;10.47;7.23;;;;;;;;;;5052361;28;20434;-51
2022/05/01 10:21:14;;;;;;;5.37;4.90;;;;;;;;;;5052075;28;20416;-53
2022/05/01 10:23:41;;;;;;;9.80;5.67;;;;;;;;;;5052507;28;20405;-52
2022/05/01 10:26:24;;;;;;;6.57;5.90;;;;;;;;;;5052383;28;20407;-51
2022/05/01 10:28:57;;;;;;;6.33;5.73;;;;;;;;;;5052136;28;20878;-51
2022/05/01 10:34:28;;;;;;;5.93;5.33;;;;;;;;;;5052429;28;20835;-53
2022/05/01 10:37:10;;;;;;;8.03;6.10;;;;;;;;;;5052105;28;20478;-51
2022/05/01 10:39:39;;;;;;;7.20;6.60;;;;;;;;;;5051978;28;20396;-52
2022/05/01 10:42:05;;;;;;;10.00;5.73;;;;;;;;;;5051429;28;20410;-51
2022/05/01 10:44:36;;;;;;;6.50;5.90;;;;;;;;;;5052072;28;20387;-51
2022/05/01 10:47:16;;;;;;;8.07;5.67;;;;;;;;;;5052139;28;20447;-51
2022/05/01 10:49:46;;;;;;;7.03;6.23;;;;;;;;;;5051946;28;20434;-51
2022/05/01 10:52:22;;;;;;;6.63;6.03;;;;;;;;;;5051147;28;20495;-54
2022/05/01 10:54:51;;;;;;;6.70;5.73;;;;;;;;;;5051988;28;20397;-51
2022/05/01 10:57:18;;;;;;;8.33;5.87;;;;;;;;;;5051934;28;20451;-51
2022/05/01 10:59:47;;;;;;;7.43;5.53;;;;;;;;;;5051988;28;20431;-51
2022/05/01 11:02:29;;;;;;;7.20;6.30;;;;;;;;;;5051125;28;20468;-51
2022/05/01 11:04:56;;;;;;;7.80;5.83;;;;;;;;;;5051888;28;20395;-51
2022/05/01 11:07:22;;;;;;;6.60;6.00;;;;;;;;;;5051849;28;20423;-51
2022/05/01 11:09:49;;;;;;;6.93;5.70;;;;;;;;;;5067052;28;20463;-51
2022/05/01 11:12:16;;;;;;;6.13;5.63;;;;;;;;;;5051079;28;20428;-53
2022/05/01 11:14:42;;;;;;;5.83;5.27;;;;;;;;;;5059878;28;20411;-51
2022/05/01 11:17:09;;;;;;;13.13;6.70;;;;;;;;;;5074427;28;20412;-52
2022/05/01 11:19:51;;;;;;;7.00;5.87;;;;;;;;;;5076055;28;20420;-53
2022/05/01 11:22:23;;;;;;;6.43;5.30;;;;;;;;;;5074786;28;20437;-54
2022/05/01 11:24:49;;;;;;;7.57;5.83;;;;;;;;;;5075402;28;20417;-54
2022/05/01 11:27:16;;;;;;;6.63;6.03;;;;;;;;;;5075554;28;20494;-55
2022/05/01 11:30:01;;;;;;;8.07;5.97;;;;;;;;;;5074886;28;20460;-52
2022/05/01 11:32:27;;;;;;;9.00;5.83;;;;;;;;;;5074692;28;20420;-55
2022/05/01 11:34:54;;;;;;;5.40;4.70;;;;;;;;;;5075365;28;21034;-55
2022/05/01 11:37:21;;;;;;;5.37;4.87;;;;;;;;;;5075179;28;20462;-56
2022/05/01 11:39:50;;;;;;;5.87;5.30;;;;;;;;;;5075324;28;20490;-54
2022/05/01 11:42:25;;;;;;;5.67;5.13;;;;;;;;;;5067501;28;20434;-56
2022/05/01 11:44:52;;;;;;;5.00;4.50;;;;;;;;;;5055714;28;20986;-55
2022/05/01 11:47:21;;;;;;;6.30;4.40;;;;;;;;;;5061949;28;20454;-56
2022/05/01 11:49:47;;;;;;;5.50;5.03;;;;;;;;;;5073801;28;20542;-55
2022/05/01 11:52:15;;;;;;;6.50;5.40;;;;;;;;;;5074045;28;20538;-52
2022/05/01 11:54:41;;;;;;;7.13;5.67;;;;;;;;;;5074579;28;20408;-53
2022/05/01 12:02:39;;;;;;;6.90;6.20;;;;;;;;;;5054743;28;20412;-53
2022/05/01 12:05:05;;;;;;;6.70;6.10;;;;;;;;;;5069571;28;20491;-53
2022/05/01 12:07:32;;;;;;;6.60;5.90;;;;;;;;;;5074591;28;20880;-53
2022/05/01 12:09:58;;;;;;;6.90;6.20;;;;;;;;;;5072518;28;20922;-53
2022/05/01 12:12:28;;;;;;;6.33;5.83;;;;;;;;;;5073317;28;20515;-53
2022/05/01 12:14:54;;;;;;;7.53;6.83;;;;;;;;;;5072484;28;20830;-54
2022/05/01 12:17:21;;;;;;;7.13;6.43;;;;;;;;;;5067900;28;20412;-53
2022/05/01 12:19:48;;;;;;;7.43;6.73;;;;;;;;;;5080600;28;20435;-55
2022/05/01 12:22:15;;;;;;;7.63;6.50;;;;;;;;;;5064175;28;20435;-53
2022/05/01 12:24:42;;;;;;;6.17;5.67;;;;;;;;;;5074058;28;20471;-53
2022/05/01 12:27:08;;;;;;;9.17;7.33;;;;;;;;;;5074427;28;20844;-54
2022/05/01 12:29:34;;;;;;;9.50;8.70;;;;;;;;;;5073248;28;20466;-55
2022/05/01 12:32:01;;;;;;;9.73;7.23;;;;;;;;;;5071624;28;20420;-55
2022/05/01 12:34:28;;;;;;;9.30;8.20;;;;;;;;;;5072327;28;20415;-52
2022/05/01 12:36:56;;;;;;;9.37;7.33;;;;;;;;;;5073313;28;20434;-52
2022/05/01 12:39:22;;;;;;;9.30;6.80;;;;;;;;;;5074048;28;20421;-52
2022/05/01 12:45:09;;;;;;;8.40;7.33;;;;;;;;;;5073882;28;20395;-56
2022/05/01 12:47:37;;;;;;;7.73;6.90;;;;;;;;;;5068136;28;20428;-55
2022/05/01 12:50:08;;;;;;;7.27;6.43;;;;;;;;;;5063827;28;20446;-52
2022/05/01 12:52:35;;;;;;;6.87;6.27;;;;;;;;;;5073228;28;20879;-55
2022/05/01 12:55:08;;;;;;;7.33;6.73;;;;;;;;;;5073697;28;20415;-51
2022/05/01 12:57:35;;;;;;;11.17;7.97;;;;;;;;;;5073783;28;20398;-52
2022/05/01 13:00:01;;;;;;;7.67;6.60;;;;;;;;;;5073564;28;20414;-52
2022/05/01 13:02:27;;;;;;;7.93;7.20;;;;;;;;;;5073198;28;20430;-53
2022/05/01 13:05:03;;;;;;;7.27;6.57;;;;;;;;;;5073489;28;20414;-53
2022/05/01 13:07:35;;;;;;;8.17;7.40;;;;;;;;;;5073161;28;20755;-52
2022/05/01 13:10:02;;;;;;;8.67;7.20;;;;;;;;;;5071910;28;20445;-56
2022/05/01 13:12:35;;;;;;;8.00;7.20;;;;;;;;;;5072823;28;20420;-51
2022/05/01 13:15:04;;;;;;;8.20;7.40;;;;;;;;;;5073422;28;20401;-54
2022/05/01 13:17:31;;;;;;;8.70;7.90;;;;;;;;;;5073422;28;20877;-53
2022/05/01 13:19:58;;;;;;;11.80;8.60;;;;;;;;;;5073354;28;20409;-54
2022/05/01 13:22:24;;;;;;;9.83;7.80;;;;;;;;;;5072743;28;20492;-51
2022/05/01 13:24:54;;;;;;;12.00;9.07;;;;;;;;;;5073249;28;20962;-52
2022/05/01 13:27:21;;;;;;;10.10;8.47;;;;;;;;;;5073318;28;20396;-52
2022/05/01 13:29:47;;;;;;;10.53;7.17;;;;;;;;;;5073091;28;20547;-51
2022/05/01 13:32:18;;;;;;;8.77;7.87;;;;;;;;;;5072557;28;20429;-53
2022/05/01 13:34:44;;;;;;;14.23;7.90;;;;;;;;;;5072883;28;20903;-53
2022/05/01 13:37:10;;;;;;;8.67;7.87;;;;;;;;;;5073082;28;20874;-54
2022/05/01 13:45:07;;;;;;;8.77;8.00;;;;;;;;;;5072095;28;20432;-54
2022/05/01 13:47:36;;;;;;;8.53;7.70;;;;;;;;;;5070842;28;20467;-54
2022/05/01 13:50:02;;;;;;;11.63;7.27;;;;;;;;;;5071271;28;20412;-54
2022/05/01 13:52:29;;;;;;;8.77;7.97;;;;;;;;;;5070861;28;20499;-54
2022/05/01 13:54:55;;;;;;;8.70;7.80;;;;;;;;;;5071668;28;20415;-54
2022/05/01 13:57:21;;;;;;;12.70;9.17;;;;;;;;;;5071565;28;20444;-54
2022/05/01 13:59:48;;;;;;;8.27;7.47;;;;;;;;;;5071685;28;20411;-54
2022/05/01 14:02:14;;;;;;;9.73;8.30;;;;;;;;;;5071474;28;20830;-54
2022/05/01 14:04:40;;;;;;;10.40;6.40;;;;;;;;;;5072564;28;20439;-54
2022/05/01 14:07:06;;;;;;;9.30;8.20;;;;;;;;;;5072508;28;20412;-55
2022/05/01 14:09:33;;;;;;;8.40;7.60;;;;;;;;;;5072370;28;20431;-55
2022/05/01 14:11:59;;;;;;;8.60;7.63;;;;;;;;;;5070018;28;20421;-55
2022/05/01 14:14:26;;;;;;;8.50;7.70;;;;;;;;;;5072274;28;20873;-55
2022/05/01 14:16:52;;;;;;;8.10;7.30;;;;;;;;;;5072405;28;20397;-54
2022/05/01 14:19:23;;;;;;;11.00;8.00;;;;;;;;;;5072425;28;20517;-54
2022/05/01 14:21:49;;;;;;;9.50;8.37;;;;;;;;;;5071591;28;20405;-54
2022/05/01 14:24:16;;;;;;;9.73;8.80;;;;;;;;;;5072200;28;20465;-54
2022/05/01 14:26:42;;;;;;;10.20;7.60;;;;;;;;;;5072172;28;20454;-55
2022/05/01 14:29:08;;;;;;;9.40;7.73;;;;;;;;;;5071868;28;20451;-55
2022/05/01 14:31:39;;;;;;;9.53;8.63;;;;;;;;;;5071659;28;20427;-55
2022/05/01 14:34:17;;;;;;;9.30;7.23;;;;;;;;;;5072095;28;20401;-54
2022/05/01 14:36:47;;;;;;;11.80;8.43;;;;;;;;;;5072234;28;20494;-54
2022/05/01 14:39:15;;;;;;;11.10;7.40;;;;;;;;;;5071888;28;20408;-55
2022/05/01 14:41:42;;;;;;;9.33;8.47;;;;;;;;;;5071127;28;20421;-54
2022/05/01 14:44:09;;;;;;;9.07;8.20;;;;;;;;;;5072028;28;20398;-55
2022/05/01 14:46:40;;;;;;;8.70;7.17;;;;;;;;;;5072081;28;20419;-54
2022/05/01 14:49:32;;;;;;;9.00;8.07;;;;;;;;;;5071849;28;20460;-54
2022/05/01 14:51:59;;;;;;;8.40;7.60;;;;;;;;;;5062047;28;20461;-55
2022/05/01 14:54:27;;;;;;;11.23;8.67;;;;;;;;;;5071903;28;20397;-54
2022/05/01 14:56:56;;;;;;;8.73;7.87;;;;;;;;;;5071903;28;20401;-55
2022/05/01 15:07:39;;;;;;;9.43;8.53;;;;;;;;;;5072005;28;20989;-54
2022/05/01 15:10:05;;;;;;;10.33;8.60;;;;;;;;;;5071697;28;20397;-54
2022/05/01 15:12:31;;;;;;;10.57;9.03;;;;;;;;;;5070948;28;20424;-54
2022/05/01 15:14:57;;;;;;;9.70;8.80;;;;;;;;;;5071746;28;20404;-55
2022/05/01 15:17:25;;;;;;;9.77;8.90;;;;;;;;;;5071592;28;20396;-55
2022/05/01 15:19:58;;;;;;;9.37;8.37;;;;;;;;;;5071665;28;20497;-54
2022/05/01 15:22:42;;;;;;;8.53;7.67;;;;;;;;;;5071118;28;20459;-54